sensor_id;sensor_type;location;lat;lon;timestamp;temperature;humidity
13203;DHT22;6666;51.626;7.530;2023-12-29T00:00:27;10.70;1.00
13203;DHT22;6666;51.626;7.530;2023-12-29T00:02:55;10.70;1.00
13203;DHT22;6666;51.626;7.530;2023-12-29T00:05:23;10.70;1.00
13203;DHT22;6666;51.626;7.530;2023-12-29T00:07:51;10.70;1.00
13203;DHT22;6666;51.626;7.530;2023-12-29T00:10:19;10.70;1.00
13203;DHT22;6666;51.626;7.530;2023-12-29T00:12:47;10.70;1.00
13203;DHT22;6666;51.626;7.530;2023-12-29T00:15:18;10.70;1.00
13203;DHT22;6666;51.626;7.530;2023-12-29T00:17:47;10.80;1.00
13203;DHT22;6666;51.626;7.530;2023-12-29T00:20:15;10.80;1.00
13203;DHT22;6666;51.626;7.530;2023-12-29T00:23:03;10.80;1.00
13203;DHT22;6666;51.626;7.530;2023-12-29T00:25:31;10.80;1.00
13203;DHT22;6666;51.626;7.530;2023-12-29T00:27:59;10.80;1.00
13203;DHT22;6666;51.626;7.530;2023-12-29T00:30:30;10.80;1.00
13203;DHT22;6666;51.626;7.530;2023-12-29T00:33:18;10.80;1.00
13203;DHT22;6666;51.626;7.530;2023-12-29T00:35:46;10.80;1.00
13203;DHT22;6666;51.626;7.530;2023-12-29T00:38:14;10.80;1.00
13203;DHT22;6666;51.626;7.530;2023-12-29T00:40:43;10.80;1.00
13203;DHT22;6666;51.626;7.530;2023-12-29T00:43:11;10.80;1.00
13203;DHT22;6666;51.626;7.530;2023-12-29T00:45:40;10.80;1.00
13203;DHT22;6666;51.626;7.530;2023-12-29T00:48:09;10.80;1.00
13203;DHT22;6666;51.626;7.530;2023-12-29T00:50:37;10.80;1.00
13203;DHT22;6666;51.626;7.530;2023-12-29T00:53:05;10.80;1.00
13203;DHT22;6666;51.626;7.530;2023-12-29T00:55:33;10.90;1.00
13203;DHT22;6666;51.626;7.530;2023-12-29T00:58:02;10.90;1.00
13203;DHT22;6666;51.626;7.530;2023-12-29T01:00:30;10.90;1.00
13203;DHT22;6666;51.626;7.530;2023-12-29T01:03:01;10.90;1.00
13203;DHT22;6666;51.626;7.530;2023-12-29T01:05:29;10.90;1.00
13203;DHT22;6666;51.626;7.530;2023-12-29T01:07:58;10.80;1.00
13203;DHT22;6666;51.626;7.530;2023-12-29T01:10:26;10.90;1.00
13203;DHT22;6666;51.626;7.530;2023-12-29T01:12:54;10.90;1.00
13203;DHT22;6666;51.626;7.530;2023-12-29T01:15:22;10.90;1.00
13203;DHT22;6666;51.626;7.530;2023-12-29T01:17:51;10.90;1.00
13203;DHT22;6666;51.626;7.530;2023-12-29T01:20:21;10.90;1.00
13203;DHT22;6666;51.626;7.530;2023-12-29T01:22:49;10.90;1.00
13203;DHT22;6666;51.626;7.530;2023-12-29T01:25:17;10.80;1.00
13203;DHT22;6666;51.626;7.530;2023-12-29T01:27:46;10.90;1.00
13203;DHT22;6666;51.626;7.530;2023-12-29T01:30:14;10.90;1.00
13203;DHT22;6666;51.626;7.530;2023-12-29T01:32:42;10.90;1.00
13203;DHT22;6666;51.626;7.530;2023-12-29T01:35:10;10.90;1.00
13203;DHT22;6666;51.626;7.530;2023-12-29T01:37:40;10.90;1.00
13203;DHT22;6666;51.626;7.530;2023-12-29T01:40:09;10.90;1.00
13203;DHT22;6666;51.626;7.530;2023-12-29T01:42:38;10.90;1.00
13203;DHT22;6666;51.626;7.530;2023-12-29T01:45:20;10.90;1.00
13203;DHT22;6666;51.626;7.530;2023-12-29T01:47:49;10.90;1.00
13203;DHT22;6666;51.626;7.530;2023-12-29T01:50:21;10.90;1.00
13203;DHT22;6666;51.626;7.530;2023-12-29T01:52:52;10.90;1.00
13203;DHT22;6666;51.626;7.530;2023-12-29T01:55:21;10.90;1.00
13203;DHT22;6666;51.626;7.530;2023-12-29T01:57:50;10.80;1.00
13203;DHT22;6666;51.626;7.530;2023-12-29T02:00:19;10.80;1.00
13203;DHT22;6666;51.626;7.530;2023-12-29T02:02:48;10.70;1.00
13203;DHT22;6666;51.626;7.530;2023-12-29T02:05:17;10.70;1.00
13203;DHT22;6666;51.626;7.530;2023-12-29T02:07:52;10.70;1.00
13203;DHT22;6666;51.626;7.530;2023-12-29T02:10:21;10.70;1.00
13203;DHT22;6666;51.626;7.530;2023-12-29T02:12:50;10.70;1.00
13203;DHT22;6666;51.626;7.530;2023-12-29T02:15:22;10.60;5.20
13203;DHT22;6666;51.626;7.530;2023-12-29T02:17:58;10.60;53.50
13203;DHT22;6666;51.626;7.530;2023-12-29T02:20:28;10.50;99.90
13203;DHT22;6666;51.626;7.530;2023-12-29T02:22:58;10.30;99.90
13203;DHT22;6666;51.626;7.530;2023-12-29T02:25:28;10.20;99.90
13203;DHT22;6666;51.626;7.530;2023-12-29T02:27:59;10.10;99.90
13203;DHT22;6666;51.626;7.530;2023-12-29T02:30:37;10.00;99.90
13203;DHT22;6666;51.626;7.530;2023-12-29T02:33:09;10.00;99.90
13203;DHT22;6666;51.626;7.530;2023-12-29T02:35:42;9.90;99.90
13203;DHT22;6666;51.626;7.530;2023-12-29T02:38:11;9.80;99.90
13203;DHT22;6666;51.626;7.530;2023-12-29T02:40:41;9.70;99.90
13203;DHT22;6666;51.626;7.530;2023-12-29T02:43:10;9.70;99.90
13203;DHT22;6666;51.626;7.530;2023-12-29T02:45:38;9.70;99.90
13203;DHT22;6666;51.626;7.530;2023-12-29T02:48:07;9.60;99.90
13203;DHT22;6666;51.626;7.530;2023-12-29T02:50:35;9.50;99.90
13203;DHT22;6666;51.626;7.530;2023-12-29T02:53:03;9.50;99.90
13203;DHT22;6666;51.626;7.530;2023-12-29T02:55:32;9.50;99.90
13203;DHT22;6666;51.626;7.530;2023-12-29T02:58:01;9.50;99.90
13203;DHT22;6666;51.626;7.530;2023-12-29T03:00:30;9.40;99.90
13203;DHT22;6666;51.626;7.530;2023-12-29T03:02:58;9.40;99.90
13203;DHT22;6666;51.626;7.530;2023-12-29T03:05:27;9.30;99.90
13203;DHT22;6666;51.626;7.530;2023-12-29T03:07:55;9.30;99.90
13203;DHT22;6666;51.626;7.530;2023-12-29T03:10:24;9.30;99.90
13203;DHT22;6666;51.626;7.530;2023-12-29T03:12:53;9.30;99.90
13203;DHT22;6666;51.626;7.530;2023-12-29T03:15:23;9.30;99.90
13203;DHT22;6666;51.626;7.530;2023-12-29T03:17:51;9.30;99.90
13203;DHT22;6666;51.626;7.530;2023-12-29T03:20:21;9.30;99.90
13203;DHT22;6666;51.626;7.530;2023-12-29T03:22:49;9.30;99.90
13203;DHT22;6666;51.626;7.530;2023-12-29T03:25:18;9.30;99.90
13203;DHT22;6666;51.626;7.530;2023-12-29T03:27:46;9.30;99.90
13203;DHT22;6666;51.626;7.530;2023-12-29T03:30:14;9.30;99.90
13203;DHT22;6666;51.626;7.530;2023-12-29T03:32:44;9.30;99.90
13203;DHT22;6666;51.626;7.530;2023-12-29T03:35:12;9.30;99.90
13203;DHT22;6666;51.626;7.530;2023-12-29T03:37:41;9.30;99.90
13203;DHT22;6666;51.626;7.530;2023-12-29T03:40:09;9.30;99.90
13203;DHT22;6666;51.626;7.530;2023-12-29T03:42:39;9.30;99.90
13203;DHT22;6666;51.626;7.530;2023-12-29T03:45:08;9.30;99.90
13203;DHT22;6666;51.626;7.530;2023-12-29T03:47:37;9.30;99.90
13203;DHT22;6666;51.626;7.530;2023-12-29T03:50:07;9.40;99.90
13203;DHT22;6666;51.626;7.530;2023-12-29T03:52:35;9.40;99.90
13203;DHT22;6666;51.626;7.530;2023-12-29T03:55:04;9.40;99.90
13203;DHT22;6666;51.626;7.530;2023-12-29T03:57:33;9.40;99.90
13203;DHT22;6666;51.626;7.530;2023-12-29T04:00:01;9.50;99.90
13203;DHT22;6666;51.626;7.530;2023-12-29T04:02:38;9.50;99.90
13203;DHT22;6666;51.626;7.530;2023-12-29T04:05:09;9.60;99.90
13203;DHT22;6666;51.626;7.530;2023-12-29T04:07:39;9.60;99.90
13203;DHT22;6666;51.626;7.530;2023-12-29T04:10:08;9.60;99.90
13203;DHT22;6666;51.626;7.530;2023-12-29T04:12:37;9.60;99.90
13203;DHT22;6666;51.626;7.530;2023-12-29T04:15:06;9.60;99.90
13203;DHT22;6666;51.626;7.530;2023-12-29T04:17:34;9.60;99.90
13203;DHT22;6666;51.626;7.530;2023-12-29T04:20:03;9.60;99.90
13203;DHT22;6666;51.626;7.530;2023-12-29T04:22:32;9.70;99.90
13203;DHT22;6666;51.626;7.530;2023-12-29T04:25:01;9.70;99.90
13203;DHT22;6666;51.626;7.530;2023-12-29T04:27:30;9.80;99.90
13203;DHT22;6666;51.626;7.530;2023-12-29T04:29:58;9.70;99.90
13203;DHT22;6666;51.626;7.530;2023-12-29T04:32:26;9.70;99.90
13203;DHT22;6666;51.626;7.530;2023-12-29T04:34:54;9.70;99.90
13203;DHT22;6666;51.626;7.530;2023-12-29T04:37:22;9.70;99.90
13203;DHT22;6666;51.626;7.530;2023-12-29T04:39:52;9.70;99.90
13203;DHT22;6666;51.626;7.530;2023-12-29T04:42:20;9.70;99.90
13203;DHT22;6666;51.626;7.530;2023-12-29T04:44:48;9.70;99.90
13203;DHT22;6666;51.626;7.530;2023-12-29T04:47:16;9.60;99.90
13203;DHT22;6666;51.626;7.530;2023-12-29T04:49:44;9.70;99.90
13203;DHT22;6666;51.626;7.530;2023-12-29T04:52:13;9.70;99.90
13203;DHT22;6666;51.626;7.530;2023-12-29T04:54:41;9.70;99.90
13203;DHT22;6666;51.626;7.530;2023-12-29T04:57:10;9.70;99.90
13203;DHT22;6666;51.626;7.530;2023-12-29T04:59:39;9.70;99.90
13203;DHT22;6666;51.626;7.530;2023-12-29T05:02:07;9.70;99.90
13203;DHT22;6666;51.626;7.530;2023-12-29T05:04:35;9.80;99.90
13203;DHT22;6666;51.626;7.530;2023-12-29T05:07:05;9.90;99.90
13203;DHT22;6666;51.626;7.530;2023-12-29T05:09:34;9.80;99.90
13203;DHT22;6666;51.626;7.530;2023-12-29T05:12:02;9.90;99.90
13203;DHT22;6666;51.626;7.530;2023-12-29T05:14:32;9.90;99.90
13203;DHT22;6666;51.626;7.530;2023-12-29T05:17:00;9.90;99.90
13203;DHT22;6666;51.626;7.530;2023-12-29T05:19:28;9.90;99.90
13203;DHT22;6666;51.626;7.530;2023-12-29T05:21:56;10.00;99.90
13203;DHT22;6666;51.626;7.530;2023-12-29T05:24:25;10.00;99.90
13203;DHT22;6666;51.626;7.530;2023-12-29T05:26:53;9.90;99.90
13203;DHT22;6666;51.626;7.530;2023-12-29T05:29:21;10.00;99.90
13203;DHT22;6666;51.626;7.530;2023-12-29T05:31:50;10.00;99.90
13203;DHT22;6666;51.626;7.530;2023-12-29T05:34:19;10.10;99.90
13203;DHT22;6666;51.626;7.530;2023-12-29T05:36:47;10.00;99.90
13203;DHT22;6666;51.626;7.530;2023-12-29T05:39:17;10.00;99.90
13203;DHT22;6666;51.626;7.530;2023-12-29T05:41:45;10.00;99.90
13203;DHT22;6666;51.626;7.530;2023-12-29T05:44:13;10.00;99.90
13203;DHT22;6666;51.626;7.530;2023-12-29T05:46:46;10.00;99.90
13203;DHT22;6666;51.626;7.530;2023-12-29T05:49:16;10.00;99.90
13203;DHT22;6666;51.626;7.530;2023-12-29T05:51:44;10.00;99.90
13203;DHT22;6666;51.626;7.530;2023-12-29T05:54:13;10.10;99.90
13203;DHT22;6666;51.626;7.530;2023-12-29T05:56:41;10.00;99.90
13203;DHT22;6666;51.626;7.530;2023-12-29T05:59:09;9.90;99.90
13203;DHT22;6666;51.626;7.530;2023-12-29T06:01:38;9.90;99.90
13203;DHT22;6666;51.626;7.530;2023-12-29T06:04:06;10.00;99.90
13203;DHT22;6666;51.626;7.530;2023-12-29T06:06:36;10.00;99.90
13203;DHT22;6666;51.626;7.530;2023-12-29T06:09:04;10.00;99.90
13203;DHT22;6666;51.626;7.530;2023-12-29T06:11:33;10.10;99.90
13203;DHT22;6666;51.626;7.530;2023-12-29T06:14:01;10.10;99.90
13203;DHT22;6666;51.626;7.530;2023-12-29T06:16:29;10.00;99.90
13203;DHT22;6666;51.626;7.530;2023-12-29T06:18:57;10.10;99.90
13203;DHT22;6666;51.626;7.530;2023-12-29T06:21:26;10.10;99.90
13203;DHT22;6666;51.626;7.530;2023-12-29T06:23:55;10.10;99.90
13203;DHT22;6666;51.626;7.530;2023-12-29T06:26:23;10.00;99.90
13203;DHT22;6666;51.626;7.530;2023-12-29T06:28:52;10.10;99.90
13203;DHT22;6666;51.626;7.530;2023-12-29T06:31:20;10.10;99.90
13203;DHT22;6666;51.626;7.530;2023-12-29T06:33:48;10.10;99.90
13203;DHT22;6666;51.626;7.530;2023-12-29T06:36:17;10.10;99.90
13203;DHT22;6666;51.626;7.530;2023-12-29T06:38:45;10.10;99.90
13203;DHT22;6666;51.626;7.530;2023-12-29T06:41:17;10.10;99.90
13203;DHT22;6666;51.626;7.530;2023-12-29T06:43:45;10.00;99.90
13203;DHT22;6666;51.626;7.530;2023-12-29T06:46:13;10.00;99.90
13203;DHT22;6666;51.626;7.530;2023-12-29T06:48:42;10.00;99.90
13203;DHT22;6666;51.626;7.530;2023-12-29T06:51:16;10.10;99.90
13203;DHT22;6666;51.626;7.530;2023-12-29T06:53:45;10.10;99.90
13203;DHT22;6666;51.626;7.530;2023-12-29T06:56:14;10.10;99.90
13203;DHT22;6666;51.626;7.530;2023-12-29T06:58:44;10.10;99.90
13203;DHT22;6666;51.626;7.530;2023-12-29T07:01:12;10.20;99.90
13203;DHT22;6666;51.626;7.530;2023-12-29T07:03:40;10.20;99.90
13203;DHT22;6666;51.626;7.530;2023-12-29T07:06:09;10.20;99.90
13203;DHT22;6666;51.626;7.530;2023-12-29T07:08:38;10.20;99.90
13203;DHT22;6666;51.626;7.530;2023-12-29T07:11:09;10.10;99.90
13203;DHT22;6666;51.626;7.530;2023-12-29T07:13:39;10.10;99.90
13203;DHT22;6666;51.626;7.530;2023-12-29T07:16:08;10.10;99.90
13203;DHT22;6666;51.626;7.530;2023-12-29T07:18:37;10.10;99.90
13203;DHT22;6666;51.626;7.530;2023-12-29T07:21:05;10.10;99.90
13203;DHT22;6666;51.626;7.530;2023-12-29T07:23:34;10.10;99.90
13203;DHT22;6666;51.626;7.530;2023-12-29T07:26:02;10.10;99.90
13203;DHT22;6666;51.626;7.530;2023-12-29T07:28:31;10.10;99.90
13203;DHT22;6666;51.626;7.530;2023-12-29T07:31:00;10.10;99.90
13203;DHT22;6666;51.626;7.530;2023-12-29T07:33:30;10.00;99.90
13203;DHT22;6666;51.626;7.530;2023-12-29T07:35:59;9.90;99.90
13203;DHT22;6666;51.626;7.530;2023-12-29T07:38:28;9.80;99.90
13203;DHT22;6666;51.626;7.530;2023-12-29T07:40:56;9.70;99.90
13203;DHT22;6666;51.626;7.530;2023-12-29T07:43:24;9.60;99.90
13203;DHT22;6666;51.626;7.530;2023-12-29T07:45:52;9.60;99.90
13203;DHT22;6666;51.626;7.530;2023-12-29T07:48:21;9.50;99.90
13203;DHT22;6666;51.626;7.530;2023-12-29T07:50:51;9.50;99.90
13203;DHT22;6666;51.626;7.530;2023-12-29T07:53:19;9.50;99.90
13203;DHT22;6666;51.626;7.530;2023-12-29T07:55:47;9.50;99.90
13203;DHT22;6666;51.626;7.530;2023-12-29T07:58:17;9.40;99.90
13203;DHT22;6666;51.626;7.530;2023-12-29T08:00:46;9.40;99.90
13203;DHT22;6666;51.626;7.530;2023-12-29T08:03:14;9.40;99.90
13203;DHT22;6666;51.626;7.530;2023-12-29T08:05:43;9.40;99.90
13203;DHT22;6666;51.626;7.530;2023-12-29T08:08:14;9.40;99.90
13203;DHT22;6666;51.626;7.530;2023-12-29T08:10:42;9.40;99.90
13203;DHT22;6666;51.626;7.530;2023-12-29T08:13:10;9.40;99.90
13203;DHT22;6666;51.626;7.530;2023-12-29T08:15:39;9.40;99.90
13203;DHT22;6666;51.626;7.530;2023-12-29T08:18:07;9.40;99.90
13203;DHT22;6666;51.626;7.530;2023-12-29T08:20:36;9.40;99.90
13203;DHT22;6666;51.626;7.530;2023-12-29T08:23:04;9.40;99.90
13203;DHT22;6666;51.626;7.530;2023-12-29T08:25:34;9.40;99.90
13203;DHT22;6666;51.626;7.530;2023-12-29T08:28:04;9.40;99.90
13203;DHT22;6666;51.626;7.530;2023-12-29T08:30:34;9.40;99.90
13203;DHT22;6666;51.626;7.530;2023-12-29T08:33:03;9.40;99.90
13203;DHT22;6666;51.626;7.530;2023-12-29T08:35:31;9.40;99.90
13203;DHT22;6666;51.626;7.530;2023-12-29T08:37:59;9.40;99.90
13203;DHT22;6666;51.626;7.530;2023-12-29T08:40:28;9.40;99.90
13203;DHT22;6666;51.626;7.530;2023-12-29T08:42:58;9.40;99.90
13203;DHT22;6666;51.626;7.530;2023-12-29T08:45:28;9.40;99.90
13203;DHT22;6666;51.626;7.530;2023-12-29T08:47:56;9.40;99.90
13203;DHT22;6666;51.626;7.530;2023-12-29T08:50:25;9.40;99.90
13203;DHT22;6666;51.626;7.530;2023-12-29T08:52:53;9.40;99.90
13203;DHT22;6666;51.626;7.530;2023-12-29T08:55:21;9.40;99.90
13203;DHT22;6666;51.626;7.530;2023-12-29T08:57:49;9.40;99.90
13203;DHT22;6666;51.626;7.530;2023-12-29T09:00:19;9.40;99.90
13203;DHT22;6666;51.626;7.530;2023-12-29T09:02:47;9.40;99.90
13203;DHT22;6666;51.626;7.530;2023-12-29T09:05:15;9.50;99.90
13203;DHT22;6666;51.626;7.530;2023-12-29T09:07:43;9.50;99.90
13203;DHT22;6666;51.626;7.530;2023-12-29T09:10:11;9.50;99.90
13203;DHT22;6666;51.626;7.530;2023-12-29T09:12:40;9.50;99.90
13203;DHT22;6666;51.626;7.530;2023-12-29T09:15:08;9.50;99.90
13203;DHT22;6666;51.626;7.530;2023-12-29T09:17:38;9.60;99.90
13203;DHT22;6666;51.626;7.530;2023-12-29T09:20:08;9.70;99.90
13203;DHT22;6666;51.626;7.530;2023-12-29T09:22:37;9.70;99.90
13203;DHT22;6666;51.626;7.530;2023-12-29T09:25:06;9.70;99.90
13203;DHT22;6666;51.626;7.530;2023-12-29T09:27:34;9.70;99.90
13203;DHT22;6666;51.626;7.530;2023-12-29T09:30:03;9.70;99.90
13203;DHT22;6666;51.626;7.530;2023-12-29T09:32:32;9.70;99.90
13203;DHT22;6666;51.626;7.530;2023-12-29T09:35:02;9.70;99.90
13203;DHT22;6666;51.626;7.530;2023-12-29T09:37:30;9.70;99.90
13203;DHT22;6666;51.626;7.530;2023-12-29T09:39:58;9.70;99.90
13203;DHT22;6666;51.626;7.530;2023-12-29T09:42:28;9.70;99.90
13203;DHT22;6666;51.626;7.530;2023-12-29T09:45:00;9.80;99.90
13203;DHT22;6666;51.626;7.530;2023-12-29T09:47:31;9.80;99.90
13203;DHT22;6666;51.626;7.530;2023-12-29T09:50:05;9.80;99.90
13203;DHT22;6666;51.626;7.530;2023-12-29T09:52:34;9.80;99.90
13203;DHT22;6666;51.626;7.530;2023-12-29T09:55:03;9.80;99.90
13203;DHT22;6666;51.626;7.530;2023-12-29T09:57:33;9.80;99.90
13203;DHT22;6666;51.626;7.530;2023-12-29T10:00:02;9.90;99.90
13203;DHT22;6666;51.626;7.530;2023-12-29T10:02:37;9.90;99.90
13203;DHT22;6666;51.626;7.530;2023-12-29T10:05:07;9.90;99.90
13203;DHT22;6666;51.626;7.530;2023-12-29T10:07:38;9.90;99.90
13203;DHT22;6666;51.626;7.530;2023-12-29T10:10:07;10.00;99.90
13203;DHT22;6666;51.626;7.530;2023-12-29T10:12:36;10.00;99.90
13203;DHT22;6666;51.626;7.530;2023-12-29T10:15:06;10.00;99.90
13203;DHT22;6666;51.626;7.530;2023-12-29T10:17:43;10.00;99.90
13203;DHT22;6666;51.626;7.530;2023-12-29T10:20:30;10.10;99.90
13203;DHT22;6666;51.626;7.530;2023-12-29T10:23:05;10.00;99.90
13203;DHT22;6666;51.626;7.530;2023-12-29T10:25:35;10.10;99.90
13203;DHT22;6666;51.626;7.530;2023-12-29T10:28:05;10.10;99.90
13203;DHT22;6666;51.626;7.530;2023-12-29T10:30:33;10.10;99.90
13203;DHT22;6666;51.626;7.530;2023-12-29T10:33:03;10.10;99.90
13203;DHT22;6666;51.626;7.530;2023-12-29T10:35:36;10.10;99.90
13203;DHT22;6666;51.626;7.530;2023-12-29T10:38:09;10.10;99.90
13203;DHT22;6666;51.626;7.530;2023-12-29T10:40:39;10.10;99.90
13203;DHT22;6666;51.626;7.530;2023-12-29T10:43:07;10.00;99.90
13203;DHT22;6666;51.626;7.530;2023-12-29T10:45:36;10.10;99.90
13203;DHT22;6666;51.626;7.530;2023-12-29T10:48:05;10.10;99.90
13203;DHT22;6666;51.626;7.530;2023-12-29T10:50:44;10.10;99.90
13203;DHT22;6666;51.626;7.530;2023-12-29T10:53:13;10.20;99.90
13203;DHT22;6666;51.626;7.530;2023-12-29T10:55:41;10.20;99.90
13203;DHT22;6666;51.626;7.530;2023-12-29T10:58:10;10.20;99.90
13203;DHT22;6666;51.626;7.530;2023-12-29T11:00:38;10.20;99.90
13203;DHT22;6666;51.626;7.530;2023-12-29T11:03:06;10.20;99.90
13203;DHT22;6666;51.626;7.530;2023-12-29T11:05:35;10.30;99.90
13203;DHT22;6666;51.626;7.530;2023-12-29T11:08:15;10.30;99.90
13203;DHT22;6666;51.626;7.530;2023-12-29T11:10:43;10.40;99.90
13203;DHT22;6666;51.626;7.530;2023-12-29T11:13:12;10.40;99.90
13203;DHT22;6666;51.626;7.530;2023-12-29T11:15:45;10.40;99.90
13203;DHT22;6666;51.626;7.530;2023-12-29T11:18:14;10.50;99.90
13203;DHT22;6666;51.626;7.530;2023-12-29T11:20:44;10.50;99.90
13203;DHT22;6666;51.626;7.530;2023-12-29T11:23:14;10.50;99.90
13203;DHT22;6666;51.626;7.530;2023-12-29T11:25:44;10.50;99.90
13203;DHT22;6666;51.626;7.530;2023-12-29T11:28:13;10.60;99.90
13203;DHT22;6666;51.626;7.530;2023-12-29T11:30:42;10.60;99.90
13203;DHT22;6666;51.626;7.530;2023-12-29T11:33:15;10.60;99.90
13203;DHT22;6666;51.626;7.530;2023-12-29T11:35:49;10.60;99.90
13203;DHT22;6666;51.626;7.530;2023-12-29T11:38:28;10.70;99.90
13203;DHT22;6666;51.626;7.530;2023-12-29T11:41:02;10.70;99.90
13203;DHT22;6666;51.626;7.530;2023-12-29T11:43:34;10.70;99.90
13203;DHT22;6666;51.626;7.530;2023-12-29T11:46:02;10.80;99.90
13203;DHT22;6666;51.626;7.530;2023-12-29T11:48:55;10.80;99.90
13203;DHT22;6666;51.626;7.530;2023-12-29T11:51:29;10.80;99.90
13203;DHT22;6666;51.626;7.530;2023-12-29T11:53:59;10.80;99.90
13203;DHT22;6666;51.626;7.530;2023-12-29T11:56:34;10.80;99.90
13203;DHT22;6666;51.626;7.530;2023-12-29T11:59:13;10.90;99.90
13203;DHT22;6666;51.626;7.530;2023-12-29T12:01:40;10.80;99.90
13203;DHT22;6666;51.626;7.530;2023-12-29T12:04:37;10.80;99.90
13203;DHT22;6666;51.626;7.530;2023-12-29T12:07:12;10.80;99.90
13203;DHT22;6666;51.626;7.530;2023-12-29T12:09:43;10.80;99.90
13203;DHT22;6666;51.626;7.530;2023-12-29T12:12:11;10.90;99.90
13203;DHT22;6666;51.626;7.530;2023-12-29T12:14:50;10.90;99.90
13203;DHT22;6666;51.626;7.530;2023-12-29T12:17:29;10.90;99.90
13203;DHT22;6666;51.626;7.530;2023-12-29T12:19:59;10.90;99.90
13203;DHT22;6666;51.626;7.530;2023-12-29T12:22:30;10.90;99.90
13203;DHT22;6666;51.626;7.530;2023-12-29T12:25:04;10.90;99.90
13203;DHT22;6666;51.626;7.530;2023-12-29T12:27:36;10.90;99.90
13203;DHT22;6666;51.626;7.530;2023-12-29T12:30:06;10.90;99.90
13203;DHT22;6666;51.626;7.530;2023-12-29T12:32:36;10.90;99.90
13203;DHT22;6666;51.626;7.530;2023-12-29T12:35:13;10.90;99.90
13203;DHT22;6666;51.626;7.530;2023-12-29T12:37:45;11.00;99.90
13203;DHT22;6666;51.626;7.530;2023-12-29T12:40:26;10.90;99.90
13203;DHT22;6666;51.626;7.530;2023-12-29T12:42:54;10.90;99.90
13203;DHT22;6666;51.626;7.530;2023-12-29T12:45:26;10.90;99.90
13203;DHT22;6666;51.626;7.530;2023-12-29T12:48:01;11.00;99.90
13203;DHT22;6666;51.626;7.530;2023-12-29T12:50:31;11.00;99.90
13203;DHT22;6666;51.626;7.530;2023-12-29T12:53:00;11.00;99.90
13203;DHT22;6666;51.626;7.530;2023-12-29T12:55:34;10.90;99.90
13203;DHT22;6666;51.626;7.530;2023-12-29T12:58:03;10.90;99.90
13203;DHT22;6666;51.626;7.530;2023-12-29T13:00:32;11.00;99.90
13203;DHT22;6666;51.626;7.530;2023-12-29T13:03:00;11.00;99.90
13203;DHT22;6666;51.626;7.530;2023-12-29T13:05:30;11.00;99.90
13203;DHT22;6666;51.626;7.530;2023-12-29T13:07:58;11.00;99.90
13203;DHT22;6666;51.626;7.530;2023-12-29T13:10:28;11.00;99.90
13203;DHT22;6666;51.626;7.530;2023-12-29T13:12:58;11.00;99.90
13203;DHT22;6666;51.626;7.530;2023-12-29T13:15:27;11.00;99.90
13203;DHT22;6666;51.626;7.530;2023-12-29T13:17:56;11.00;99.90
13203;DHT22;6666;51.626;7.530;2023-12-29T13:20:24;11.00;99.90
13203;DHT22;6666;51.626;7.530;2023-12-29T13:22:52;10.90;99.90
13203;DHT22;6666;51.626;7.530;2023-12-29T13:25:21;10.70;99.90
13203;DHT22;6666;51.626;7.530;2023-12-29T13:27:52;10.50;99.90
13203;DHT22;6666;51.626;7.530;2023-12-29T13:30:23;10.30;99.90
13203;DHT22;6666;51.626;7.530;2023-12-29T13:32:51;10.00;99.90
13203;DHT22;6666;51.626;7.530;2023-12-29T13:35:23;9.70;99.90
13203;DHT22;6666;51.626;7.530;2023-12-29T13:37:59;9.60;99.90
13203;DHT22;6666;51.626;7.530;2023-12-29T13:40:35;9.40;99.90
13203;DHT22;6666;51.626;7.530;2023-12-29T13:43:08;9.40;99.90
13203;DHT22;6666;51.626;7.530;2023-12-29T13:45:40;9.20;99.90
13203;DHT22;6666;51.626;7.530;2023-12-29T13:48:11;9.00;99.90
13203;DHT22;6666;51.626;7.530;2023-12-29T13:50:39;8.80;99.90
13203;DHT22;6666;51.626;7.530;2023-12-29T13:53:08;8.80;99.90
13203;DHT22;6666;51.626;7.530;2023-12-29T13:55:43;8.80;99.90
13203;DHT22;6666;51.626;7.530;2023-12-29T13:58:11;8.90;99.90
13203;DHT22;6666;51.626;7.530;2023-12-29T14:00:41;8.90;99.90
13203;DHT22;6666;51.626;7.530;2023-12-29T14:03:15;8.80;99.90
13203;DHT22;6666;51.626;7.530;2023-12-29T14:05:52;8.70;99.90
13203;DHT22;6666;51.626;7.530;2023-12-29T14:08:26;8.70;99.90
13203;DHT22;6666;51.626;7.530;2023-12-29T14:10:55;8.70;99.90
13203;DHT22;6666;51.626;7.530;2023-12-29T14:13:23;8.70;99.90
13203;DHT22;6666;51.626;7.530;2023-12-29T14:15:53;8.80;99.90
13203;DHT22;6666;51.626;7.530;2023-12-29T14:18:40;8.80;99.90
13203;DHT22;6666;51.626;7.530;2023-12-29T14:21:28;8.80;99.90
13203;DHT22;6666;51.626;7.530;2023-12-29T14:24:08;8.70;99.90
13203;DHT22;6666;51.626;7.530;2023-12-29T14:26:38;8.70;99.90
13203;DHT22;6666;51.626;7.530;2023-12-29T14:29:08;8.80;99.90
13203;DHT22;6666;51.626;7.530;2023-12-29T14:31:39;8.80;99.90
13203;DHT22;6666;51.626;7.530;2023-12-29T14:34:08;8.80;99.90
13203;DHT22;6666;51.626;7.530;2023-12-29T14:36:38;8.90;99.90
13203;DHT22;6666;51.626;7.530;2023-12-29T14:39:08;8.80;99.90
13203;DHT22;6666;51.626;7.530;2023-12-29T14:41:38;8.80;99.90
13203;DHT22;6666;51.626;7.530;2023-12-29T14:44:06;8.90;99.90
13203;DHT22;6666;51.626;7.530;2023-12-29T14:46:35;8.80;99.90
13203;DHT22;6666;51.626;7.530;2023-12-29T14:49:05;8.80;99.90
13203;DHT22;6666;51.626;7.530;2023-12-29T14:51:34;8.80;99.90
13203;DHT22;6666;51.626;7.530;2023-12-29T14:54:02;8.90;99.90
13203;DHT22;6666;51.626;7.530;2023-12-29T14:56:31;8.90;99.90
13203;DHT22;6666;51.626;7.530;2023-12-29T14:58:59;8.80;99.90
13203;DHT22;6666;51.626;7.530;2023-12-29T15:01:28;9.00;99.90
13203;DHT22;6666;51.626;7.530;2023-12-29T15:03:56;9.00;99.90
13203;DHT22;6666;51.626;7.530;2023-12-29T15:06:25;8.90;99.90
13203;DHT22;6666;51.626;7.530;2023-12-29T15:08:53;8.90;99.90
13203;DHT22;6666;51.626;7.530;2023-12-29T15:11:21;9.00;99.90
13203;DHT22;6666;51.626;7.530;2023-12-29T15:13:49;9.20;99.90
13203;DHT22;6666;51.626;7.530;2023-12-29T15:16:17;9.30;99.90
13203;DHT22;6666;51.626;7.530;2023-12-29T15:18:46;9.40;99.90
13203;DHT22;6666;51.626;7.530;2023-12-29T15:21:14;9.50;99.90
13203;DHT22;6666;51.626;7.530;2023-12-29T15:23:44;9.50;99.90
13203;DHT22;6666;51.626;7.530;2023-12-29T15:26:12;9.50;99.90
13203;DHT22;6666;51.626;7.530;2023-12-29T15:28:42;9.60;99.90
13203;DHT22;6666;51.626;7.530;2023-12-29T15:31:10;9.60;99.90
13203;DHT22;6666;51.626;7.530;2023-12-29T15:33:40;9.60;99.90
13203;DHT22;6666;51.626;7.530;2023-12-29T15:36:12;9.70;99.90
13203;DHT22;6666;51.626;7.530;2023-12-29T15:38:40;9.70;99.90
13203;DHT22;6666;51.626;7.530;2023-12-29T15:41:10;9.70;99.90
13203;DHT22;6666;51.626;7.530;2023-12-29T15:43:38;9.70;99.90
13203;DHT22;6666;51.626;7.530;2023-12-29T15:46:12;9.70;99.90
13203;DHT22;6666;51.626;7.530;2023-12-29T15:48:41;9.60;99.90
13203;DHT22;6666;51.626;7.530;2023-12-29T15:51:09;9.70;99.90
13203;DHT22;6666;51.626;7.530;2023-12-29T15:53:37;9.60;99.90
13203;DHT22;6666;51.626;7.530;2023-12-29T15:56:06;9.60;99.90
13203;DHT22;6666;51.626;7.530;2023-12-29T15:58:36;9.60;99.90
13203;DHT22;6666;51.626;7.530;2023-12-29T16:01:04;9.60;99.90
13203;DHT22;6666;51.626;7.530;2023-12-29T16:03:32;9.60;99.90
13203;DHT22;6666;51.626;7.530;2023-12-29T16:06:01;9.60;99.90
13203;DHT22;6666;51.626;7.530;2023-12-29T16:08:30;9.60;99.90
13203;DHT22;6666;51.626;7.530;2023-12-29T16:10:59;9.60;99.90
13203;DHT22;6666;51.626;7.530;2023-12-29T16:13:27;9.60;99.90